createdAt,value
2018-07-30T00:02:30.295Z,7.13
2018-07-30T00:04:59.469Z,8.30
2018-07-30T00:07:28.630Z,6.40
2018-07-30T00:09:57.786Z,7.60
2018-07-30T00:12:26.966Z,7.20
2018-07-30T00:14:56.129Z,6.80
2018-07-30T00:17:25.258Z,7.20
2018-07-30T00:19:54.433Z,7.83
2018-07-30T00:22:23.577Z,7.50
2018-07-30T00:24:52.667Z,7.53
2018-07-30T00:27:21.875Z,7.67
2018-07-30T00:29:51.099Z,8.07
2018-07-30T00:32:23.310Z,7.27
2018-07-30T00:34:52.452Z,7.30
2018-07-30T00:37:21.629Z,7.67
2018-07-30T00:39:50.635Z,8.30
2018-07-30T00:42:19.861Z,7.33
2018-07-30T00:44:49.026Z,7.57
2018-07-30T00:47:23.063Z,8.63
2018-07-30T00:49:52.213Z,7.87
2018-07-30T00:52:21.353Z,7.97
2018-07-30T00:54:50.552Z,8.10
2018-07-30T00:57:19.745Z,8.90
2018-07-30T00:59:48.897Z,9.70
2018-07-30T01:02:24.137Z,8.00
2018-07-30T01:04:53.295Z,7.80
2018-07-30T01:07:22.435Z,10.20
2018-07-30T01:09:51.605Z,8.27
2018-07-30T01:12:20.759Z,8.70
2018-07-30T01:14:49.937Z,8.23
2018-07-30T01:17:19.129Z,9.50
2018-07-30T01:19:48.361Z,8.90
2018-07-30T01:22:17.508Z,8.93
2018-07-30T01:24:46.694Z,9.67
2018-07-30T01:27:15.896Z,8.50
2018-07-30T01:29:45.046Z,7.03
2018-07-30T01:32:24.597Z,8.77
2018-07-30T01:34:53.758Z,9.33
2018-07-30T01:37:22.921Z,7.87
2018-07-30T01:40:20.801Z,9.23
2018-07-30T01:42:49.952Z,9.23
2018-07-30T01:45:19.141Z,9.27
2018-07-30T01:47:48.324Z,8.93
2018-07-30T01:50:17.536Z,8.40
2018-07-30T01:52:46.693Z,8.40
2018-07-30T01:55:15.885Z,9.17
2018-07-30T01:57:45.033Z,7.80
2018-07-30T02:00:14.248Z,8.23
2018-07-30T02:02:44.293Z,8.27
2018-07-30T02:05:13.456Z,9.37
2018-07-30T02:07:43.290Z,8.53
2018-07-30T02:10:12.957Z,8.63
2018-07-30T02:12:42.154Z,8.80
2018-07-30T02:15:12.501Z,8.27
2018-07-30T02:17:41.645Z,8.80
2018-07-30T02:20:10.802Z,8.77
2018-07-30T02:22:39.976Z,8.53
2018-07-30T02:25:09.644Z,9.13
2018-07-30T02:27:38.852Z,10.43
2018-07-30T02:30:09.314Z,9.60
2018-07-30T02:32:38.703Z,8.73
2018-07-30T02:35:22.571Z,8.37
2018-07-30T02:37:51.728Z,9.40
2018-07-30T02:40:20.905Z,7.27
2018-07-30T02:42:50.092Z,7.93
2018-07-30T02:45:19.335Z,9.33
2018-07-30T02:47:48.510Z,8.33
2018-07-30T02:50:24.049Z,8.00
2018-07-30T02:52:53.194Z,7.70
2018-07-30T02:55:22.338Z,8.87
2018-07-30T02:57:51.522Z,7.90
2018-07-30T03:00:20.439Z,7.50
2018-07-30T03:02:49.930Z,8.47
2018-07-30T03:05:19.773Z,8.07
2018-07-30T03:07:48.931Z,7.60
2018-07-30T03:10:18.093Z,8.20
2018-07-30T03:12:47.286Z,7.77
2018-07-30T03:15:16.425Z,9.20
2018-07-30T03:18:32.897Z,7.50
2018-07-30T03:21:02.052Z,8.23
2018-07-30T03:23:31.217Z,8.37
2018-07-30T03:26:00.394Z,7.97
2018-07-30T03:28:29.652Z,8.30
2018-07-30T03:30:58.814Z,8.07
2018-07-30T03:33:28.031Z,7.63
2018-07-30T03:35:57.215Z,7.47
2018-07-30T03:38:26.354Z,7.73
2018-07-30T03:40:55.537Z,7.70
2018-07-30T03:43:24.758Z,8.43
2018-07-30T03:46:20.978Z,8.60
2018-07-30T03:48:50.130Z,9.93
2018-07-30T03:51:19.282Z,8.50
2018-07-30T03:53:48.477Z,10.20
2018-07-30T03:56:17.646Z,8.10
2018-07-30T03:58:46.878Z,8.80
2018-07-30T04:01:16.074Z,8.50
2018-07-30T04:03:45.269Z,8.00
2018-07-30T04:06:14.507Z,8.17
2018-07-30T04:08:43.634Z,7.73
2018-07-30T04:11:12.939Z,8.90
2018-07-30T04:13:42.098Z,11.43
2018-07-30T04:16:11.273Z,8.27
2018-07-30T04:18:40.416Z,8.73
2018-07-30T04:21:09.581Z,8.13
2018-07-30T04:23:38.821Z,8.03
2018-07-30T04:26:07.976Z,7.60
2018-07-30T04:28:37.516Z,9.00
2018-07-30T04:31:06.699Z,8.73
2018-07-30T04:33:35.861Z,10.23
2018-07-30T04:36:05.058Z,12.93
2018-07-30T04:38:34.242Z,11.80
2018-07-30T04:41:03.398Z,9.30
2018-07-30T04:43:32.541Z,9.20
2018-07-30T04:46:01.749Z,8.10
2018-07-30T04:48:31.014Z,8.57
2018-07-30T04:51:00.197Z,7.30
2018-07-30T04:53:29.418Z,7.80
2018-07-30T04:55:58.561Z,8.07
2018-07-30T04:58:27.860Z,8.83
2018-07-30T05:00:57.109Z,9.00
2018-07-30T05:03:26.261Z,8.50
2018-07-30T05:05:55.508Z,8.13
2018-07-30T05:08:24.709Z,9.43
2018-07-30T05:10:53.981Z,12.30
2018-07-30T05:13:23.240Z,12.73
2018-07-30T05:15:52.402Z,12.03
2018-07-30T05:18:21.679Z,12.97
2018-07-30T05:20:50.878Z,11.20
2018-07-30T05:24:39.829Z,11.60
2018-07-30T05:27:09.013Z,7.97
2018-07-30T05:29:38.618Z,8.63
2018-07-30T05:32:22.432Z,14.90
2018-07-30T05:34:51.597Z,9.23
2018-07-30T05:37:24.243Z,8.50
2018-07-30T05:39:53.632Z,8.00
2018-07-30T05:42:22.873Z,12.60
2018-07-30T05:44:52.092Z,12.17
2018-07-30T05:47:21.249Z,8.20
2018-07-30T05:49:50.446Z,8.43
2018-07-30T05:52:19.640Z,9.70
2018-07-30T05:54:48.798Z,8.57
2018-07-30T05:57:17.956Z,10.10
2018-07-30T05:59:47.315Z,7.97
2018-07-30T06:02:23.988Z,7.97
2018-07-30T06:04:53.214Z,9.20
2018-07-30T06:07:22.377Z,9.80
2018-07-30T06:09:51.626Z,8.10
2018-07-30T06:12:20.800Z,10.23
2018-07-30T06:14:49.953Z,7.90
2018-07-30T06:17:19.135Z,8.47
2018-07-30T06:19:48.345Z,12.90
2018-07-30T06:22:17.390Z,12.80
2018-07-30T06:24:46.551Z,8.33
2018-07-30T06:27:15.727Z,8.50
2018-07-30T06:29:45.086Z,10.30
2018-07-30T06:34:00.925Z,8.73
2018-07-30T06:36:30.104Z,11.33
2018-07-30T06:38:59.312Z,12.70
2018-07-30T06:41:28.501Z,10.20
2018-07-30T06:43:57.809Z,8.40
2018-07-30T06:49:17.901Z,8.30
2018-07-30T06:51:47.245Z,8.83
2018-07-30T06:54:16.388Z,10.53
2018-07-30T06:56:45.572Z,9.27
2018-07-30T06:59:14.737Z,11.27
2018-07-30T07:01:43.942Z,10.43
2018-07-30T07:04:13.191Z,10.33
2018-07-30T07:06:42.338Z,10.57
2018-07-30T07:09:11.837Z,12.40
2018-07-30T07:11:41.083Z,8.60
2018-07-30T07:14:10.285Z,11.00
2018-07-30T07:16:39.554Z,8.70
2018-07-30T07:19:08.726Z,10.90
2018-07-30T07:21:37.905Z,8.83
2018-07-30T07:24:07.153Z,10.33
2018-07-30T07:26:36.385Z,8.93
2018-07-30T07:29:22.462Z,10.73
2018-07-30T07:34:36.351Z,10.37
2018-07-30T07:37:05.821Z,10.50
2018-07-30T07:39:34.976Z,10.30
2018-07-30T07:42:04.225Z,11.13
2018-07-30T07:44:33.397Z,10.37
2018-07-30T07:47:02.591Z,10.90
2018-07-30T07:49:31.783Z,11.07
2018-07-30T07:52:01.001Z,10.40
2018-07-30T07:54:30.290Z,7.30
2018-07-30T07:56:59.478Z,11.57
2018-07-30T07:59:28.638Z,10.50
2018-07-30T08:02:22.750Z,8.80
2018-07-30T08:04:51.941Z,11.33
2018-07-30T08:07:21.093Z,8.37
2018-07-30T08:09:50.382Z,8.77
2018-07-30T08:12:19.479Z,8.90
2018-07-30T08:14:48.625Z,9.33
2018-07-30T08:17:17.813Z,9.17
2018-07-30T08:19:46.979Z,8.90
2018-07-30T08:22:16.156Z,8.70
2018-07-30T08:24:45.367Z,8.73
2018-07-30T08:27:14.533Z,9.00
2018-07-30T08:29:43.834Z,8.80
2018-07-30T08:32:25.245Z,8.87
2018-07-30T08:34:54.523Z,8.23
2018-07-30T08:37:23.666Z,8.40
2018-07-30T08:40:21.658Z,8.10
2018-07-30T08:42:50.817Z,7.90
2018-07-30T08:45:21.225Z,9.10
2018-07-30T08:47:50.506Z,8.00
2018-07-30T08:50:19.665Z,9.60
2018-07-30T08:55:49.323Z,7.90
2018-07-30T08:58:18.474Z,9.30
2018-07-30T09:00:47.705Z,9.10
2018-07-30T09:03:16.901Z,7.60
2018-07-30T09:05:46.063Z,8.03
2018-07-30T09:08:15.193Z,6.93
2018-07-30T09:10:44.382Z,7.33
2018-07-30T09:13:13.601Z,6.30
2018-07-30T09:15:42.757Z,6.30
2018-07-30T09:18:11.967Z,6.93
2018-07-30T09:20:41.218Z,6.40
2018-07-30T09:23:10.371Z,5.87
2018-07-30T09:25:39.626Z,5.70
2018-07-30T09:28:08.793Z,6.60
2018-07-30T09:30:37.941Z,6.17
2018-07-30T09:33:07.360Z,6.30
2018-07-30T09:35:36.514Z,5.80
2018-07-30T09:38:05.675Z,5.70
2018-07-30T09:40:34.865Z,6.33
2018-07-30T09:43:04.014Z,6.57
2018-07-30T09:45:33.282Z,5.47
2018-07-30T09:48:02.536Z,5.73
2018-07-30T09:50:31.679Z,5.30
2018-07-30T09:53:00.872Z,5.20
2018-07-30T09:55:30.051Z,5.20
2018-07-30T09:57:59.190Z,5.30
2018-07-30T10:00:33.673Z,5.10
2018-07-30T10:03:21.985Z,5.00
2018-07-30T10:05:51.172Z,5.23
2018-07-30T10:08:20.327Z,5.13
2018-07-30T10:10:49.534Z,4.77
2018-07-30T10:13:18.716Z,4.90
2018-07-30T10:15:47.927Z,3.67
2018-07-30T10:18:17.177Z,3.93
2018-07-30T10:20:46.330Z,4.60
2018-07-30T10:23:15.683Z,4.30
2018-07-30T10:25:44.829Z,4.00
2018-07-30T10:28:13.993Z,4.73
2018-07-30T10:33:43.718Z,4.77
2018-07-30T10:36:12.879Z,5.10
2018-07-30T10:38:42.202Z,4.93
2018-07-30T10:41:11.958Z,4.77
2018-07-30T10:43:41.102Z,5.27
2018-07-30T10:46:10.032Z,4.70
2018-07-30T10:48:39.261Z,5.60
2018-07-30T10:51:08.409Z,4.27
2018-07-30T10:53:37.558Z,4.40
2018-07-30T10:56:06.926Z,4.77
2018-07-30T10:58:36.078Z,4.70
2018-07-30T11:01:05.247Z,5.00
2018-07-30T11:03:34.414Z,4.70
2018-07-30T11:06:03.549Z,4.63
2018-07-30T11:08:32.693Z,4.67
2018-07-30T11:11:01.883Z,4.67
2018-07-30T11:13:31.094Z,4.80
2018-07-30T11:16:00.299Z,4.80
2018-07-30T11:18:29.497Z,4.60
2018-07-30T11:20:58.800Z,4.00
2018-07-30T11:23:28.023Z,4.90
2018-07-30T11:25:57.197Z,4.93
2018-07-30T11:28:26.334Z,4.90
2018-07-30T11:30:55.485Z,5.13
2018-07-30T11:33:24.705Z,3.60
2018-07-30T11:35:53.906Z,3.90
2018-07-30T11:38:23.052Z,5.03
2018-07-30T11:41:21.687Z,4.20
2018-07-30T11:43:51.321Z,4.33
2018-07-30T11:46:20.482Z,4.50
2018-07-30T11:48:49.664Z,4.43
2018-07-30T11:51:18.829Z,4.80
2018-07-30T11:53:47.960Z,3.77
2018-07-30T11:56:17.144Z,4.47
2018-07-30T11:58:46.396Z,4.70
2018-07-30T12:01:15.599Z,4.60
2018-07-30T12:03:44.737Z,5.00
2018-07-30T12:06:13.890Z,4.70
2018-07-30T12:08:43.131Z,5.07
2018-07-30T12:11:12.261Z,5.13
2018-07-30T12:13:41.425Z,4.80
2018-07-30T12:16:10.588Z,5.10
2018-07-30T12:18:39.740Z,4.63
2018-07-30T12:21:08.920Z,4.67
2018-07-30T12:23:38.119Z,4.93
2018-07-30T12:26:07.450Z,4.90
2018-07-30T12:28:36.596Z,4.90
2018-07-30T12:31:05.807Z,4.70
2018-07-30T12:33:35.005Z,4.30
2018-07-30T12:36:23.529Z,4.50
2018-07-30T12:38:52.723Z,9.27
2018-07-30T12:41:21.914Z,4.73
2018-07-30T12:43:51.141Z,4.73
2018-07-30T12:46:20.349Z,4.80
2018-07-30T12:48:49.587Z,4.13
2018-07-30T12:51:18.769Z,4.30
2018-07-30T12:53:47.909Z,5.43
2018-07-30T12:56:17.066Z,4.87
2018-07-30T12:58:46.233Z,4.90
2018-07-30T13:01:15.410Z,4.83
2018-07-30T13:06:44.956Z,5.43
2018-07-30T13:09:14.114Z,5.40
2018-07-30T13:11:43.266Z,5.20
2018-07-30T13:14:12.450Z,5.23
2018-07-30T13:16:41.619Z,5.50
2018-07-30T13:19:10.964Z,5.60
2018-07-30T13:21:40.140Z,4.97
2018-07-30T13:24:09.281Z,5.67
2018-07-30T13:26:38.529Z,4.43
2018-07-30T13:29:07.642Z,5.63
2018-07-30T13:34:36.578Z,5.00
2018-07-30T13:37:05.894Z,5.57
2018-07-30T13:39:35.118Z,5.17
2018-07-30T13:42:04.739Z,5.67
2018-07-30T13:44:33.906Z,9.80
2018-07-30T13:47:03.058Z,16.53
2018-07-30T13:49:32.289Z,7.63
2018-07-30T13:52:01.571Z,5.57
2018-07-30T13:54:30.795Z,5.57
2018-07-30T13:56:59.937Z,5.50
2018-07-30T13:59:29.101Z,4.87
2018-07-30T14:02:23.616Z,5.57
2018-07-30T14:04:52.756Z,4.63
2018-07-30T14:07:21.914Z,5.03
2018-07-30T14:09:51.098Z,5.80
2018-07-30T14:12:20.350Z,4.20
2018-07-30T14:14:49.489Z,5.00
2018-07-30T14:17:18.713Z,4.60
2018-07-30T14:19:47.911Z,4.30
2018-07-30T14:22:17.521Z,3.70
2018-07-30T14:24:46.985Z,4.13
2018-07-30T14:27:16.133Z,4.30
2018-07-30T14:29:45.333Z,3.97
2018-07-30T14:32:24.465Z,4.83
2018-07-30T14:34:53.642Z,4.10
2018-07-30T14:37:22.793Z,4.33
2018-07-30T14:39:52.178Z,4.90
2018-07-30T14:42:21.344Z,4.50
2018-07-30T14:44:50.504Z,4.70
2018-07-30T14:47:19.696Z,4.30
2018-07-30T14:49:48.857Z,4.20
2018-07-30T14:52:18.061Z,9.97
2018-07-30T14:54:47.533Z,3.97
2018-07-30T14:57:16.748Z,4.60
2018-07-30T14:59:46.161Z,5.30
2018-07-30T15:02:23.295Z,4.37
2018-07-30T15:04:52.455Z,5.07
2018-07-30T15:07:21.687Z,3.90
2018-07-30T15:12:51.489Z,4.50
2018-07-30T15:15:20.650Z,4.60
2018-07-30T15:17:49.789Z,5.13
2018-07-30T15:20:18.979Z,3.97
2018-07-30T15:22:48.105Z,4.30
2018-07-30T15:25:17.325Z,3.90
2018-07-30T15:27:46.501Z,4.00
2018-07-30T15:30:15.688Z,3.90
2018-07-30T15:32:44.843Z,3.43
2018-07-30T15:35:14.012Z,4.80
2018-07-30T15:40:43.681Z,4.60
2018-07-30T15:43:12.836Z,3.97
2018-07-30T15:45:41.978Z,4.20
2018-07-30T15:48:11.174Z,4.07
2018-07-30T15:50:40.339Z,4.50
2018-07-30T15:53:09.502Z,4.50
2018-07-30T15:55:38.781Z,4.90
2018-07-30T15:58:07.938Z,5.17
2018-07-30T16:00:37.107Z,4.40
2018-07-30T16:03:06.384Z,9.60
2018-07-30T16:05:35.686Z,5.20
2018-07-30T16:08:04.865Z,4.03
2018-07-30T16:10:34.061Z,4.50
2018-07-30T16:13:03.234Z,4.50
2018-07-30T16:15:32.413Z,3.33
2018-07-30T16:18:01.618Z,3.80
2018-07-30T16:20:30.748Z,4.40
2018-07-30T16:22:59.906Z,4.40
2018-07-30T16:25:29.666Z,4.47
2018-07-30T16:27:58.825Z,3.70
2018-07-30T16:30:28.043Z,4.70
2018-07-30T16:32:56.989Z,4.50
2018-07-30T16:35:26.200Z,4.13
2018-07-30T16:37:55.362Z,4.97
2018-07-30T16:40:24.528Z,4.80
2018-07-30T16:42:53.541Z,5.03
2018-07-30T16:45:22.921Z,4.23
2018-07-30T16:47:52.077Z,4.50
2018-07-30T16:50:21.236Z,4.43
2018-07-30T16:52:50.405Z,4.80
2018-07-30T16:55:19.594Z,4.73
2018-07-30T16:57:49.378Z,3.97
2018-07-30T17:00:18.542Z,4.10
2018-07-30T17:02:47.714Z,3.53
2018-07-30T17:05:18.416Z,4.30
2018-07-30T17:07:48.008Z,4.30
2018-07-30T17:10:17.289Z,24.93
2018-07-30T17:12:46.506Z,6.80
2018-07-30T17:15:15.698Z,5.07
2018-07-30T17:17:44.964Z,5.20
2018-07-30T17:20:14.776Z,4.03
2018-07-30T17:22:44.329Z,5.80
2018-07-30T17:25:13.468Z,4.50
2018-07-30T17:27:42.620Z,4.23
2018-07-30T17:30:23.757Z,4.00
2018-07-30T17:32:57.349Z,4.07
2018-07-30T17:35:26.538Z,4.47
2018-07-30T17:37:55.755Z,4.30
2018-07-30T17:40:24.948Z,4.30
2018-07-30T17:42:54.225Z,3.90
2018-07-30T17:45:23.405Z,4.07
2018-07-30T17:47:52.599Z,4.67
2018-07-30T17:50:21.781Z,5.47
2018-07-30T17:52:50.969Z,3.90
2018-07-30T17:55:20.190Z,4.87
2018-07-30T17:57:49.346Z,3.90
2018-07-30T18:00:18.810Z,3.97
2018-07-30T18:02:48.069Z,4.60
2018-07-30T18:05:19.189Z,4.27
2018-07-30T18:07:50.089Z,4.37
2018-07-30T18:10:24.398Z,4.60
2018-07-30T18:12:53.615Z,4.70
2018-07-30T18:15:22.838Z,3.57
2018-07-30T18:17:52.001Z,3.90
2018-07-30T18:20:22.058Z,3.57
2018-07-30T18:22:51.229Z,4.23
2018-07-30T18:25:20.486Z,4.60
2018-07-30T18:27:49.704Z,3.57
2018-07-30T18:30:18.983Z,3.20
2018-07-30T18:32:48.013Z,4.30
2018-07-30T18:35:17.126Z,3.47
2018-07-30T18:37:46.286Z,4.07
2018-07-30T18:40:25.232Z,4.50
2018-07-30T18:42:54.590Z,5.90
2018-07-30T18:45:23.777Z,12.80
2018-07-30T18:47:52.980Z,5.17
2018-07-30T18:50:22.149Z,17.77
2018-07-30T18:52:51.341Z,4.10
2018-07-30T18:55:20.573Z,5.20
2018-07-30T18:57:50.103Z,4.50
2018-07-30T19:00:19.271Z,4.57
2018-07-30T19:02:48.521Z,4.73
2018-07-30T19:05:17.489Z,3.90
2018-07-30T19:07:46.662Z,4.30
2018-07-30T19:10:15.861Z,4.57
2018-07-30T19:12:45.037Z,5.30
2018-07-30T19:15:14.420Z,5.20
2018-07-30T19:17:43.630Z,4.47
2018-07-30T19:20:12.886Z,5.20
2018-07-30T19:22:42.368Z,5.03
2018-07-30T19:25:11.598Z,4.30
2018-07-30T19:27:40.800Z,4.87
2018-07-30T19:30:10.000Z,4.87
2018-07-30T19:32:39.206Z,5.00
2018-07-30T19:35:25.084Z,4.67
2018-07-30T19:37:54.300Z,4.10
2018-07-30T19:40:23.514Z,3.87
2018-07-30T19:42:52.807Z,4.90
2018-07-30T19:45:22.262Z,4.10
2018-07-30T19:50:51.387Z,4.67
2018-07-30T19:53:20.699Z,6.70
2018-07-30T19:55:49.896Z,6.10
2018-07-30T19:58:19.307Z,6.43
2018-07-30T20:00:48.373Z,5.90
2018-07-30T20:03:24.391Z,4.70
2018-07-30T20:05:53.553Z,4.90
2018-07-30T20:08:22.754Z,5.30
2018-07-30T20:10:51.983Z,5.17
2018-07-30T20:13:25.051Z,5.30
2018-07-30T20:15:54.600Z,4.83
2018-07-30T20:18:23.914Z,5.30
2018-07-30T20:20:53.793Z,4.77
2018-07-30T20:23:23.000Z,5.10
2018-07-30T20:25:52.168Z,5.20
2018-07-30T20:28:21.401Z,5.30
2018-07-30T20:33:51.479Z,5.67
2018-07-30T20:36:26.432Z,5.50
2018-07-30T20:38:55.734Z,4.70
2018-07-30T20:41:24.984Z,5.30
2018-07-30T20:43:54.156Z,5.70
2018-07-30T20:46:24.106Z,5.40
2018-07-30T20:48:53.305Z,5.50
2018-07-30T20:51:22.472Z,5.40
2018-07-30T20:53:51.676Z,5.10
2018-07-30T20:56:20.846Z,5.67
2018-07-30T20:58:50.010Z,6.20
2018-07-30T21:01:19.233Z,5.53
2018-07-30T21:03:48.968Z,5.17
2018-07-30T21:06:24.497Z,5.97
2018-07-30T21:08:53.643Z,12.77
2018-07-30T21:11:22.856Z,6.53
2018-07-30T21:16:52.194Z,5.80
2018-07-30T21:19:21.610Z,5.93
2018-07-30T21:21:50.792Z,5.37
2018-07-30T21:24:25.908Z,6.20
2018-07-30T21:26:55.181Z,6.63
2018-07-30T21:29:24.325Z,6.20
2018-07-30T21:37:47.814Z,6.17
2018-07-30T21:40:16.974Z,6.03
2018-07-30T21:42:46.157Z,7.50
2018-07-30T21:45:15.337Z,6.50
2018-07-30T21:47:45.241Z,6.50
2018-07-30T21:50:24.965Z,7.37
2018-07-30T21:52:54.132Z,6.43
2018-07-30T21:55:23.278Z,6.70
2018-07-30T21:57:52.478Z,6.53
2018-07-30T22:00:26.001Z,6.10
2018-07-30T22:02:56.326Z,6.00
2018-07-30T22:05:25.564Z,7.20
2018-07-30T22:07:54.767Z,6.83
2018-07-30T22:10:25.450Z,6.70
2018-07-30T22:12:55.659Z,6.90
2018-07-30T22:15:25.085Z,6.57
2018-07-30T22:17:54.259Z,6.40
2018-07-30T22:20:25.154Z,7.83
2018-07-30T22:22:54.387Z,7.33
2018-07-30T22:25:23.642Z,6.77
2018-07-30T22:27:52.846Z,7.03
2018-07-30T22:30:22.111Z,7.43
2018-07-30T22:32:51.370Z,6.97
2018-07-30T22:35:24.459Z,7.40
2018-07-30T22:38:22.951Z,7.30
2018-07-30T22:40:52.050Z,7.43
2018-07-30T22:43:21.321Z,7.00
2018-07-30T22:45:50.574Z,7.63
2018-07-30T22:48:25.429Z,7.13
2018-07-30T22:50:54.619Z,7.77
2018-07-30T22:53:23.966Z,7.87
2018-07-30T22:55:53.383Z,7.40
2018-07-30T22:58:22.566Z,7.20
2018-07-30T23:00:51.557Z,7.63
2018-07-30T23:03:20.763Z,7.80
2018-07-30T23:05:49.933Z,6.60
2018-07-30T23:08:18.962Z,7.23
2018-07-30T23:10:48.230Z,8.03
2018-07-30T23:13:17.435Z,7.33
2018-07-30T23:15:46.626Z,6.43
2018-07-30T23:18:15.853Z,7.20
2018-07-30T23:23:45.153Z,7.57
2018-07-30T23:26:14.353Z,7.47
2018-07-30T23:28:43.542Z,7.10
2018-07-30T23:31:12.780Z,7.43
2018-07-30T23:33:41.983Z,7.53
2018-07-30T23:36:23.658Z,8.50
2018-07-30T23:38:52.875Z,7.50
2018-07-30T23:41:22.076Z,7.23
2018-07-30T23:43:51.397Z,8.20
2018-07-30T23:46:20.716Z,10.10
2018-07-30T23:48:50.473Z,15.13
2018-07-30T23:51:19.743Z,8.53
2018-07-30T23:53:48.961Z,7.87
2018-07-30T23:56:18.596Z,8.77
2018-07-30T23:58:47.822Z,8.93
